Time;durP1;ratioP1;P1;durP2;ratioP2;P2;SDS_P1;SDS_P2;PMS_P1;PMS_P2;Temp;Humidity;BMP_temperature;BMP_pressure;BME280_temperature;BME280_humidity;BME280_pressure;Samples;Min_cycle;Max_cycle;Signal;HPM_P1;HPM_P2
2022/11/03 00:00:59;;;;;;;;;;;;;;;;;;6218563;23;19922;-89
2022/11/03 00:03:25;;;;;;;;;;;;;;;;;;6218541;23;19943;-89
2022/11/03 00:06:03;;;;;;;;;;;;;;;;;;6218560;23;19918;-89
2022/11/03 00:08:29;;;;;;;;;;;;;;;;;;6193582;23;19918;-89
2022/11/03 00:10:55;;;;;;;;;;;;;;;;;;6193358;23;19916;-90
2022/11/03 00:13:21;;;;;;;;;;;;;;;;;;6218949;23;19912;-90
2022/11/03 00:15:47;;;;;;;;;;;;;;;;;;6218646;23;19986;-90
2022/11/03 00:18:13;;;;;;;;;;;;;;;;;;6218504;23;19939;-90
2022/11/03 00:20:38;;;;;;;;;;;;;;;;;;6218578;23;20308;-90
2022/11/03 00:23:04;;;;;;;;;;;;;;;;;;6218766;23;19982;-88
2022/11/03 00:25:30;;;;;;;;;;;;;;;;;;6218921;23;19942;-91
2022/11/03 00:27:57;;;;;;;;;;;;;;;;;;6218899;23;20340;-91
2022/11/03 00:30:22;;;;;;;;;;;;;;;;;;6218968;23;20038;-91
2022/11/03 00:32:48;;;;;;;;;;;;;;;;;;6193437;23;19911;-92
2022/11/03 00:35:14;;;;;;;;;;;;;;;;;;6244040;23;19918;-92
2022/11/03 00:37:40;;;;;;;;;;;;;;;;;;6218865;23;19912;-91
2022/11/03 00:40:06;;;;;;;;;;;;;;;;;;6219175;23;19911;-92
2022/11/03 00:42:33;;;;;;;;;;;;;;;;;;6218150;23;20034;-92
2022/11/03 00:44:59;;;;;;;;;;;;;;;;;;6219262;23;20375;-91
2022/11/03 00:47:25;;;;;;;;;;;;;;;;;;6219242;23;19915;-91
2022/11/03 00:49:51;;;;;;;;;;;;;;;;;;6218431;23;19923;-92
2022/11/03 00:52:17;;;;;;;;;;;;;;;;;;6217634;23;20190;-92
2022/11/03 00:54:43;;;;;;;;;;;;;;;;;;6218997;23;19915;-92
2022/11/03 00:57:09;;;;;;;;;;;;;;;;;;6217861;23;20325;-92
2022/11/03 00:59:35;;;;;;;;;;;;;;;;;;6218195;23;19923;-92
2022/11/03 01:02:01;;;;;;;;;;;;;;;;;;6192941;23;20371;-91
2022/11/03 01:07:12;;;;;;;;;;;;;;;;;;6243319;22;19946;-91
2022/11/03 01:09:37;;;;;;;;;;;;;;;;;;6217900;23;20325;-92
2022/11/03 01:12:03;;;;;;;;;;;;;;;;;;6218101;23;19915;-92
2022/11/03 01:14:29;;;;;;;;;;;;;;;;;;6218008;23;19912;-91
2022/11/03 01:16:55;;;;;;;;;;;;;;;;;;6218211;23;19911;-91
2022/11/03 01:19:22;;;;;;;;;;;;;;;;;;6218104;23;19965;-91
2022/11/03 01:21:47;;;;;;;;;;;;;;;;;;6217875;23;20060;-91
2022/11/03 01:24:13;;;;;;;;;;;;;;;;;;6219082;23;20297;-91
2022/11/03 01:26:39;;;;;;;;;;;;;;;;;;6219444;23;19918;-91
2022/11/03 01:29:05;;;;;;;;;;;;;;;;;;6218115;23;20355;-90
2022/11/03 01:31:31;;;;;;;;;;;;;;;;;;6243269;23;19982;-90
2022/11/03 01:33:57;;;;;;;;;;;;;;;;;;6218359;23;19982;-90
2022/11/03 01:36:23;;;;;;;;;;;;;;;;;;6193782;23;19916;-89
2022/11/03 01:38:49;;;;;;;;;;;;;;;;;;6243233;23;19912;-89
2022/11/03 01:41:15;;;;;;;;;;;;;;;;;;6217969;23;20031;-90
2022/11/03 01:43:41;;;;;;;;;;;;;;;;;;6218107;23;20273;-90
2022/11/03 01:46:08;;;;;;;;;;;;;;;;;;6218070;22;19918;-90
2022/11/03 01:48:34;;;;;;;;;;;;;;;;;;6219751;23;19919;-90
2022/11/03 01:51:00;;;;;;;;;;;;;;;;;;6218167;23;19922;-91
2022/11/03 01:53:25;;;;;;;;;;;;;;;;;;6219319;23;19950;-90
2022/11/03 01:55:51;;;;;;;;;;;;;;;;;;6219893;23;19915;-90
2022/11/03 01:58:17;;;;;;;;;;;;;;;;;;6220416;23;19912;-90
2022/11/03 02:00:43;;;;;;;;;;;;;;;;;;6219643;23;19970;-90
2022/11/03 02:03:09;;;;;;;;;;;;;;;;;;6220034;23;20317;-91
2022/11/03 02:05:35;;;;;;;;;;;;;;;;;;6220048;23;19912;-90
2022/11/03 02:08:01;;;;;;;;;;;;;;;;;;6196264;23;19912;-90
2022/11/03 02:10:27;;;;;;;;;;;;;;;;;;6220708;23;19915;-91
2022/11/03 02:12:53;;;;;;;;;;;;;;;;;;6221151;23;19919;-89
2022/11/03 02:15:20;;;;;;;;;;;;;;;;;;6221191;23;19916;-89
2022/11/03 02:17:46;;;;;;;;;;;;;;;;;;6220800;23;20198;-90
2022/11/03 02:20:12;;;;;;;;;;;;;;;;;;6245853;23;19922;-89
2022/11/03 02:22:38;;;;;;;;;;;;;;;;;;6220948;23;19911;-90
2022/11/03 02:25:04;;;;;;;;;;;;;;;;;;6221176;23;19915;-90
2022/11/03 02:27:30;;;;;;;;;;;;;;;;;;6221671;23;20248;-90
2022/11/03 02:29:57;;;;;;;;;;;;;;;;;;6220772;23;19916;-90
2022/11/03 02:32:25;;;;;;;;;;;;;;;;;;6221420;23;19923;-91
2022/11/03 02:34:51;;;;;;;;;;;;;;;;;;6220959;23;19915;-91
2022/11/03 02:37:17;;;;;;;;;;;;;;;;;;6222119;23;19900;-91
2022/11/03 02:39:43;;;;;;;;;;;;;;;;;;6246948;23;19915;-91
2022/11/03 02:42:09;;;;;;;;;;;;;;;;;;6220357;23;20135;-91
2022/11/03 02:44:36;;;;;;;;;;;;;;;;;;6246170;23;19982;-91
2022/11/03 02:47:02;;;;;;;;;;;;;;;;;;6196325;23;19918;-91
2022/11/03 02:49:28;;;;;;;;;;;;;;;;;;6221445;23;19927;-90
2022/11/03 02:51:54;;;;;;;;;;;;;;;;;;6220342;23;20329;-90
2022/11/03 02:54:20;;;;;;;;;;;;;;;;;;6220876;23;19919;-90
2022/11/03 02:56:45;;;;;;;;;;;;;;;;;;6195740;23;19911;-90
2022/11/03 02:59:11;;;;;;;;;;;;;;;;;;6225816;22;19915;-90
2022/11/03 03:01:47;;;;;;;;;;;;;;;;;;6226699;22;19918;-91
2022/11/03 03:04:12;;;;;;;;;;;;;;;;;;6226492;22;19969;-90
2022/11/03 03:06:38;;;;;;;;;;;;;;;;;;6227463;22;20236;-91
2022/11/03 03:09:04;;;;;;;;;;;;;;;;;;6229338;22;19911;-90
2022/11/03 03:11:39;;;;;;;;;;;;;;;;;;6228902;22;19915;-90
2022/11/03 03:14:05;;;;;;;;;;;;;;;;;;6229235;22;19946;-90
2022/11/03 03:16:31;;;;;;;;;;;;;;;;;;6254691;22;19911;-90
2022/11/03 03:18:59;;;;;;;;;;;;;;;;;;6232042;22;19910;-89
2022/11/03 03:21:24;;;;;;;;;;;;;;;;;;6237781;22;19899;-90
2022/11/03 03:23:50;;;;;;;;;;;;;;;;;;6261868;22;20281;-90
2022/11/03 03:26:16;;;;;;;;;;;;;;;;;;6237309;22;19911;-91
2022/11/03 03:28:42;;;;;;;;;;;;;;;;;;6235978;22;19960;-91
2022/11/03 03:31:08;;;;;;;;;;;;;;;;;;6235090;22;19986;-90
2022/11/03 03:33:34;;;;;;;;;;;;;;;;;;6233064;22;19922;-90
2022/11/03 03:36:00;;;;;;;;;;;;;;;;;;6258652;22;20316;-91
2022/11/03 03:38:27;;;;;;;;;;;;;;;;;;6235541;22;19911;-91
2022/11/03 03:40:53;;;;;;;;;;;;;;;;;;6232615;22;19915;-91
2022/11/03 03:43:19;;;;;;;;;;;;;;;;;;6233943;22;19986;-89
2022/11/03 03:45:45;;;;;;;;;;;;;;;;;;6261321;22;19918;-91
2022/11/03 03:48:11;;;;;;;;;;;;;;;;;;6234622;22;19982;-91
2022/11/03 03:50:38;;;;;;;;;;;;;;;;;;6236838;22;19915;-91
2022/11/03 03:53:04;;;;;;;;;;;;;;;;;;6238373;22;19952;-91
2022/11/03 03:55:30;;;;;;;;;;;;;;;;;;6264745;22;19955;-90
2022/11/03 03:57:56;;;;;;;;;;;;;;;;;;6237423;22;19922;-91
2022/11/03 04:00:22;;;;;;;;;;;;;;;;;;6236187;22;19919;-91
2022/11/03 04:02:48;;;;;;;;;;;;;;;;;;6235680;22;19918;-91
2022/11/03 04:05:14;;;;;;;;;;;;;;;;;;6234596;22;19915;-91
2022/11/03 04:07:45;;;;;;;;;;;;;;;;;;6229597;22;20329;-90
2022/11/03 04:10:11;;;;;;;;;;;;;;;;;;6224984;22;19919;-91
2022/11/03 04:23:39;;;;;;;;;;;;;;;;;;6249892;22;19935;-91
2022/11/03 04:26:05;;;;;;;;;;;;;;;;;;6224934;22;19934;-90
2022/11/03 04:28:34;;;;;;;;;;;;;;;;;;6251428;22;20295;-90
2022/11/03 04:31:00;;;;;;;;;;;;;;;;;;6224104;22;20033;-90
2022/11/03 04:33:26;;;;;;;;;;;;;;;;;;6225563;22;19911;-91
2022/11/03 04:35:52;;;;;;;;;;;;;;;;;;6224552;22;19911;-91
2022/11/03 04:38:17;;;;;;;;;;;;;;;;;;6224968;22;19911;-91
2022/11/03 04:40:43;;;;;;;;;;;;;;;;;;6250482;22;19915;-91
2022/11/03 04:43:09;;;;;;;;;;;;;;;;;;6224254;22;20338;-89
2022/11/03 04:45:37;;;;;;;;;;;;;;;;;;6224846;22;19956;-90
2022/11/03 04:48:03;;;;;;;;;;;;;;;;;;6224496;22;19917;-89
2022/11/03 04:50:28;;;;;;;;;;;;;;;;;;6224568;22;19994;-91
2022/11/03 04:52:56;;;;;;;;;;;;;;;;;;6225623;22;19986;-90
2022/11/03 04:55:22;;;;;;;;;;;;;;;;;;6249746;22;20325;-90
2022/11/03 04:57:47;;;;;;;;;;;;;;;;;;6224170;22;19965;-90
2022/11/03 05:00:13;;;;;;;;;;;;;;;;;;6224311;22;19926;-91
2022/11/03 05:02:39;;;;;;;;;;;;;;;;;;6224631;22;20236;-89
2022/11/03 05:05:05;;;;;;;;;;;;;;;;;;6224858;22;19919;-90
2022/11/03 05:07:31;;;;;;;;;;;;;;;;;;6249561;22;20229;-91
2022/11/03 05:09:57;;;;;;;;;;;;;;;;;;6224159;22;19919;-92
2022/11/03 05:12:26;;;;;;;;;;;;;;;;;;6249245;22;20005;-90
2022/11/03 05:14:52;;;;;;;;;;;;;;;;;;6224658;22;19911;-92
2022/11/03 05:17:18;;;;;;;;;;;;;;;;;;6224753;22;20222;-92
2022/11/03 05:19:44;;;;;;;;;;;;;;;;;;6250253;22;20320;-91
2022/11/03 05:22:10;;;;;;;;;;;;;;;;;;6250366;22;19915;-92
2022/11/03 05:24:36;;;;;;;;;;;;;;;;;;6224643;22;19919;-91
2022/11/03 05:27:02;;;;;;;;;;;;;;;;;;6224917;22;19916;-91
2022/11/03 05:29:28;;;;;;;;;;;;;;;;;;6227140;22;19969;-91
2022/11/03 05:31:54;;;;;;;;;;;;;;;;;;6251800;22;19915;-90
2022/11/03 05:34:20;;;;;;;;;;;;;;;;;;6226923;22;20312;-91
2022/11/03 05:36:46;;;;;;;;;;;;;;;;;;6226500;22;19991;-92
2022/11/03 05:39:12;;;;;;;;;;;;;;;;;;6226708;22;19958;-91
2022/11/03 05:41:37;;;;;;;;;;;;;;;;;;6251402;22;19911;-90
2022/11/03 05:44:03;;;;;;;;;;;;;;;;;;6226334;22;20320;-90
2022/11/03 05:46:29;;;;;;;;;;;;;;;;;;6226177;22;20321;-90
2022/11/03 05:48:55;;;;;;;;;;;;;;;;;;6250578;22;20335;-90
2022/11/03 05:51:21;;;;;;;;;;;;;;;;;;6226383;22;19919;-90
2022/11/03 05:53:47;;;;;;;;;;;;;;;;;;6252095;22;19911;-91
2022/11/03 05:56:13;;;;;;;;;;;;;;;;;;6226508;22;19915;-89
2022/11/03 05:58:39;;;;;;;;;;;;;;;;;;6226226;22;20342;-90
2022/11/03 06:01:05;;;;;;;;;;;;;;;;;;6226342;22;19953;-90
2022/11/03 06:03:31;;;;;;;;;;;;;;;;;;6225896;22;19933;-90
2022/11/03 06:05:57;;;;;;;;;;;;;;;;;;6226137;22;19911;-89
2022/11/03 06:08:23;;;;;;;;;;;;;;;;;;6251320;22;19922;-90
2022/11/03 06:10:50;;;;;;;;;;;;;;;;;;6251695;22;19915;-90
2022/11/03 06:13:16;;;;;;;;;;;;;;;;;;6225877;22;20067;-91
2022/11/03 06:15:42;;;;;;;;;;;;;;;;;;6225881;22;19942;-90
2022/11/03 06:18:08;;;;;;;;;;;;;;;;;;6226303;22;19911;-90
2022/11/03 06:20:34;;;;;;;;;;;;;;;;;;6226283;22;19915;-89
2022/11/03 06:22:59;;;;;;;;;;;;;;;;;;6225915;22;19911;-90
2022/11/03 06:25:25;;;;;;;;;;;;;;;;;;6226261;22;19918;-91
2022/11/03 06:27:51;;;;;;;;;;;;;;;;;;6224856;22;20056;-90
2022/11/03 06:30:17;;;;;;;;;;;;;;;;;;6225915;22;19961;-91
2022/11/03 06:32:43;;;;;;;;;;;;;;;;;;6225975;22;19915;-91
2022/11/03 06:35:09;;;;;;;;;;;;;;;;;;6225698;22;19911;-92
2022/11/03 06:37:35;;;;;;;;;;;;;;;;;;6251254;22;19982;-90
2022/11/03 06:40:01;;;;;;;;;;;;;;;;;;6225090;22;20136;-91
2022/11/03 06:42:27;;;;;;;;;;;;;;;;;;6251304;22;20284;-91
2022/11/03 06:44:53;;;;;;;;;;;;;;;;;;6251033;22;19911;-91
2022/11/03 06:47:19;;;;;;;;;;;;;;;;;;6225696;22;19918;-91
2022/11/03 06:49:45;;;;;;;;;;;;;;;;;;6226258;22;19968;-91
2022/11/03 06:52:11;;;;;;;;;;;;;;;;;;6225742;22;19965;-91
2022/11/03 06:54:39;;;;;;;;;;;;;;;;;;6226050;22;19911;-90
2022/11/03 06:57:05;;;;;;;;;;;;;;;;;;6225507;22;19965;-91
2022/11/03 06:59:30;;;;;;;;;;;;;;;;;;6226940;22;20287;-91
2022/11/03 07:01:59;;;;;;;;;;;;;;;;;;6252106;22;19911;-90
2022/11/03 07:04:29;;;;;;;;;;;;;;;;;;6225667;22;19937;-90
2022/11/03 07:06:56;;;;;;;;;;;;;;;;;;6225499;22;19912;-90
2022/11/03 07:09:22;;;;;;;;;;;;;;;;;;6224743;22;19919;-89
2022/11/03 07:11:48;;;;;;;;;;;;;;;;;;6251334;22;20320;-90
2022/11/03 07:14:14;;;;;;;;;;;;;;;;;;6252371;22;19918;-90
2022/11/03 07:16:40;;;;;;;;;;;;;;;;;;6227156;22;19915;-90
2022/11/03 07:19:06;;;;;;;;;;;;;;;;;;6225537;22;19912;-90
2022/11/03 07:21:33;;;;;;;;;;;;;;;;;;6225475;22;19911;-91
2022/11/03 07:23:59;;;;;;;;;;;;;;;;;;6225518;22;19915;-90
2022/11/03 07:26:25;;;;;;;;;;;;;;;;;;6225572;22;19918;-90
2022/11/03 07:28:51;;;;;;;;;;;;;;;;;;6250315;22;19911;-89
2022/11/03 07:31:17;;;;;;;;;;;;;;;;;;6225413;22;19915;-89
2022/11/03 07:33:43;;;;;;;;;;;;;;;;;;6226860;22;19946;-90
2022/11/03 07:36:09;;;;;;;;;;;;;;;;;;6226634;22;19915;-90
2022/11/03 07:38:35;;;;;;;;;;;;;;;;;;6226626;22;19911;-90
2022/11/03 07:41:01;;;;;;;;;;;;;;;;;;6226404;22;20224;-90
2022/11/03 07:43:27;;;;;;;;;;;;;;;;;;6227261;22;19911;-90
2022/11/03 07:45:53;;;;;;;;;;;;;;;;;;6250345;22;19911;-90
2022/11/03 07:48:19;;;;;;;;;;;;;;;;;;6224016;22;19918;-94
2022/11/03 07:50:45;;;;;;;;;;;;;;;;;;6224539;22;19915;-92
2022/11/03 07:53:11;;;;;;;;;;;;;;;;;;6224931;22;20214;-90
2022/11/03 07:55:37;;;;;;;;;;;;;;;;;;6224715;22;20319;-91
2022/11/03 07:58:03;;;;;;;;;;;;;;;;;;6225206;22;19943;-90
2022/11/03 08:00:30;;;;;;;;;;;;;;;;;;6225036;22;19922;-90
2022/11/03 08:02:56;;;;;;;;;;;;;;;;;;6249333;22;20321;-91
2022/11/03 08:05:22;;;;;;;;;;;;;;;;;;6225255;22;19911;-89
2022/11/03 08:07:48;;;;;;;;;;;;;;;;;;6250331;22;19917;-89
2022/11/03 08:10:14;;;;;;;;;;;;;;;;;;6224480;22;20114;-88
2022/11/03 08:12:40;;;;;;;;;;;;;;;;;;6224992;22;19918;-89
2022/11/03 08:15:06;;;;;;;;;;;;;;;;;;6224741;22;19947;-91
2022/11/03 08:17:32;;;;;;;;;;;;;;;;;;6250624;22;19966;-91
2022/11/03 08:19:58;;;;;;;;;;;;;;;;;;6225104;22;20001;-90
2022/11/03 08:22:24;;;;;;;;;;;;;;;;;;6250420;22;19915;-89
2022/11/03 08:24:50;;;;;;;;;;;;;;;;;;6224723;22;19965;-89
2022/11/03 08:27:16;;;;;;;;;;;;;;;;;;6248059;22;20324;-91
2022/11/03 08:29:42;;;;;;;;;;;;;;;;;;6224238;22;19915;-92
2022/11/03 08:32:08;;;;;;;;;;;;;;;;;;6224455;22;19911;-90
2022/11/03 08:34:34;;;;;;;;;;;;;;;;;;6224511;22;20116;-89
2022/11/03 08:37:00;;;;;;;;;;;;;;;;;;6249045;22;19911;-89
2022/11/03 08:39:26;;;;;;;;;;;;;;;;;;6224211;22;19911;-90
2022/11/03 08:41:52;;;;;;;;;;;;;;;;;;6224642;22;20392;-90
2022/11/03 08:44:18;;;;;;;;;;;;;;;;;;6224468;22;19998;-90
2022/11/03 08:46:43;;;;;;;;;;;;;;;;;;6224197;22;19986;-91
2022/11/03 08:49:09;;;;;;;;;;;;;;;;;;6224154;22;20371;-90
2022/11/03 08:51:35;;;;;;;;;;;;;;;;;;6223884;22;19986;-92
2022/11/03 08:54:01;;;;;;;;;;;;;;;;;;6250428;22;19949;-92
2022/11/03 08:56:29;;;;;;;;;;;;;;;;;;6225064;22;19934;-92
2022/11/03 08:58:55;;;;;;;;;;;;;;;;;;6224406;22;20339;-91
2022/11/03 09:01:20;;;;;;;;;;;;;;;;;;6224294;22;19923;-91
2022/11/03 09:03:46;;;;;;;;;;;;;;;;;;6224606;22;20341;-91
2022/11/03 09:06:12;;;;;;;;;;;;;;;;;;6224712;22;19917;-89
2022/11/03 09:08:38;;;;;;;;;;;;;;;;;;6248706;22;19994;-88
2022/11/03 09:11:04;;;;;;;;;;;;;;;;;;6249076;22;20019;-86
2022/11/03 09:13:30;;;;;;;;;;;;;;;;;;6223420;22;20244;-87
2022/11/03 09:15:56;;;;;;;;;;;;;;;;;;6249319;22;19922;-87
2022/11/03 09:18:22;;;;;;;;;;;;;;;;;;6248762;22;19915;-88
2022/11/03 09:20:49;;;;;;;;;;;;;;;;;;6224051;22;19987;-87
2022/11/03 09:23:14;;;;;;;;;;;;;;;;;;6223476;22;19911;-88
2022/11/03 09:25:40;;;;;;;;;;;;;;;;;;6223429;22;19911;-88
2022/11/03 09:28:06;;;;;;;;;;;;;;;;;;6248979;22;19915;-88
2022/11/03 09:30:32;;;;;;;;;;;;;;;;;;6223141;22;19915;-89
2022/11/03 09:32:58;;;;;;;;;;;;;;;;;;6248897;22;19964;-88
2022/11/03 09:35:24;;;;;;;;;;;;;;;;;;6249210;22;20006;-89
2022/11/03 09:37:50;;;;;;;;;;;;;;;;;;6248521;22;20325;-87
2022/11/03 09:40:16;;;;;;;;;;;;;;;;;;6248859;22;19934;-88
2022/11/03 09:42:42;;;;;;;;;;;;;;;;;;6248994;22;19998;-88
2022/11/03 09:45:08;;;;;;;;;;;;;;;;;;6223556;22;19911;-88
2022/11/03 09:47:34;;;;;;;;;;;;;;;;;;6222752;22;19918;-87
2022/11/03 09:50:00;;;;;;;;;;;;;;;;;;6223351;22;19915;-87
2022/11/03 09:52:26;;;;;;;;;;;;;;;;;;6249088;22;19933;-88
2022/11/03 09:54:54;;;;;;;;;;;;;;;;;;6248731;22;20244;-87
2022/11/03 09:57:20;;;;;;;;;;;;;;;;;;6223860;22;20245;-88
2022/11/03 09:59:47;;;;;;;;;;;;;;;;;;6223102;22;20333;-88
2022/11/03 10:02:14;;;;;;;;;;;;;;;;;;6248804;22;20324;-93
2022/11/03 10:04:40;;;;;;;;;;;;;;;;;;6224257;22;20321;-90
2022/11/03 10:07:06;;;;;;;;;;;;;;;;;;6223612;22;19911;-88
2022/11/03 10:09:32;;;;;;;;;;;;;;;;;;6223397;22;19919;-91
2022/11/03 10:11:57;;;;;;;;;;;;;;;;;;6222021;22;19911;-88
2022/11/03 10:14:23;;;;;;;;;;;;;;;;;;6249620;22;19965;-87
2022/11/03 10:16:49;;;;;;;;;;;;;;;;;;6250701;22;19915;-87
2022/11/03 10:19:15;;;;;;;;;;;;;;;;;;6250386;22;20240;-87
2022/11/03 10:21:41;;;;;;;;;;;;;;;;;;6225009;22;19911;-88
2022/11/03 10:24:07;;;;;;;;;;;;;;;;;;6225067;22;19982;-88
2022/11/03 10:26:36;;;;;;;;;;;;;;;;;;6224490;22;20343;-88
2022/11/03 10:29:03;;;;;;;;;;;;;;;;;;6224702;22;19911;-88
2022/11/03 10:31:29;;;;;;;;;;;;;;;;;;6250238;22;20351;-88
2022/11/03 10:33:54;;;;;;;;;;;;;;;;;;6250184;22;19911;-88
2022/11/03 10:36:20;;;;;;;;;;;;;;;;;;6250040;22;19911;-87
2022/11/03 10:38:46;;;;;;;;;;;;;;;;;;6224959;22;20253;-87
2022/11/03 10:41:12;;;;;;;;;;;;;;;;;;6224883;22;19911;-88
2022/11/03 10:43:38;;;;;;;;;;;;;;;;;;6250388;22;19929;-87
2022/11/03 10:46:04;;;;;;;;;;;;;;;;;;6250177;22;19918;-87
2022/11/03 10:48:31;;;;;;;;;;;;;;;;;;6250149;22;19911;-87
2022/11/03 10:50:57;;;;;;;;;;;;;;;;;;6224792;22;20329;-87
2022/11/03 10:53:23;;;;;;;;;;;;;;;;;;6225397;22;19922;-90
2022/11/03 10:55:49;;;;;;;;;;;;;;;;;;6225135;22;19922;-88
2022/11/03 10:58:15;;;;;;;;;;;;;;;;;;6249913;22;19965;-87
2022/11/03 11:00:41;;;;;;;;;;;;;;;;;;6224673;22;19959;-90
2022/11/03 11:03:07;;;;;;;;;;;;;;;;;;6226635;22;19911;-89
2022/11/03 11:05:33;;;;;;;;;;;;;;;;;;6224467;22;19922;-89
2022/11/03 11:08:00;;;;;;;;;;;;;;;;;;6224034;22;20257;-88
2022/11/03 11:10:26;;;;;;;;;;;;;;;;;;6224228;22;19923;-88
2022/11/03 11:12:52;;;;;;;;;;;;;;;;;;6224764;22;19911;-87
2022/11/03 11:15:18;;;;;;;;;;;;;;;;;;6224515;22;20240;-87
2022/11/03 11:17:44;;;;;;;;;;;;;;;;;;6224397;22;19989;-87
2022/11/03 11:20:10;;;;;;;;;;;;;;;;;;6224987;22;19987;-91
2022/11/03 11:22:36;;;;;;;;;;;;;;;;;;6225073;22;19918;-91
2022/11/03 11:25:02;;;;;;;;;;;;;;;;;;6224858;22;20309;-87
2022/11/03 11:27:30;;;;;;;;;;;;;;;;;;6249675;22;20006;-88
2022/11/03 11:29:56;;;;;;;;;;;;;;;;;;6224769;22;19987;-88
2022/11/03 11:32:22;;;;;;;;;;;;;;;;;;6250588;22;19942;-88
2022/11/03 11:34:48;;;;;;;;;;;;;;;;;;6224613;22;19911;-89
2022/11/03 11:37:14;;;;;;;;;;;;;;;;;;6249895;22;19922;-87
2022/11/03 11:39:43;;;;;;;;;;;;;;;;;;6224624;22;19911;-88
2022/11/03 11:42:08;;;;;;;;;;;;;;;;;;6224127;22;19915;-87
2022/11/03 11:44:34;;;;;;;;;;;;;;;;;;6223943;22;20241;-87
2022/11/03 11:47:00;;;;;;;;;;;;;;;;;;6249343;22;19911;-86
2022/11/03 11:49:26;;;;;;;;;;;;;;;;;;6249303;22;19915;-88
2022/11/03 11:51:52;;;;;;;;;;;;;;;;;;6249655;22;19926;-87
2022/11/03 11:54:18;;;;;;;;;;;;;;;;;;6249107;22;19911;-87
2022/11/03 11:56:44;;;;;;;;;;;;;;;;;;6249458;22;20292;-86
2022/11/03 11:59:10;;;;;;;;;;;;;;;;;;6249112;22;19923;-87
2022/11/03 12:01:36;;;;;;;;;;;;;;;;;;6249277;22;19911;-87
2022/11/03 12:04:02;;;;;;;;;;;;;;;;;;6249747;22;19917;-88
2022/11/03 12:06:28;;;;;;;;;;;;;;;;;;6249452;22;20301;-91
2022/11/03 12:08:54;;;;;;;;;;;;;;;;;;6224436;22;19915;-89
2022/11/03 12:11:20;;;;;;;;;;;;;;;;;;6224541;22;19915;-90
2022/11/03 12:13:46;;;;;;;;;;;;;;;;;;6249597;22;19911;-91
2022/11/03 12:16:12;;;;;;;;;;;;;;;;;;6224788;22;19911;-89
2022/11/03 12:18:38;;;;;;;;;;;;;;;;;;6249754;22;20247;-89
2022/11/03 12:21:04;;;;;;;;;;;;;;;;;;6224371;22;19915;-89
2022/11/03 12:23:30;;;;;;;;;;;;;;;;;;6249410;22;19911;-89
2022/11/03 12:25:56;;;;;;;;;;;;;;;;;;6224903;22;20271;-90
2022/11/03 12:28:22;;;;;;;;;;;;;;;;;;6223613;22;19994;-89
2022/11/03 12:30:48;;;;;;;;;;;;;;;;;;6249385;22;20000;-90
2022/11/03 12:33:14;;;;;;;;;;;;;;;;;;6224103;22;20335;-89
2022/11/03 12:35:39;;;;;;;;;;;;;;;;;;6249439;22;19918;-89
2022/11/03 12:38:05;;;;;;;;;;;;;;;;;;6248590;22;19934;-88
2022/11/03 12:40:31;;;;;;;;;;;;;;;;;;6224041;22;19960;-91
2022/11/03 12:42:57;;;;;;;;;;;;;;;;;;6224501;22;19911;-90
2022/11/03 12:45:23;;;;;;;;;;;;;;;;;;6224258;22;20279;-89
2022/11/03 12:47:49;;;;;;;;;;;;;;;;;;6249238;22;20236;-88
2022/11/03 12:50:15;;;;;;;;;;;;;;;;;;6224051;22;19915;-89
2022/11/03 12:52:41;;;;;;;;;;;;;;;;;;6223585;22;19911;-89
2022/11/03 12:55:07;;;;;;;;;;;;;;;;;;6224003;22;20324;-88
2022/11/03 12:57:33;;;;;;;;;;;;;;;;;;6249561;22;19911;-90
2022/11/03 12:59:59;;;;;;;;;;;;;;;;;;6225501;22;19915;-91
2022/11/03 13:02:28;;;;;;;;;;;;;;;;;;6225369;22;19911;-91
2022/11/03 13:04:54;;;;;;;;;;;;;;;;;;6224541;22;19998;-91
2022/11/03 13:07:20;;;;;;;;;;;;;;;;;;6223685;22;19911;-90
2022/11/03 13:09:45;;;;;;;;;;;;;;;;;;6224124;22;19922;-91
2022/11/03 13:12:30;;;;;;;;;;;;;;;;;;6224268;22;19957;-91
2022/11/03 13:14:56;;;;;;;;;;;;;;;;;;6223339;22;19911;-91
2022/11/03 13:17:21;;;;;;;;;;;;;;;;;;6224182;22;19922;-90
2022/11/03 13:19:47;;;;;;;;;;;;;;;;;;6224248;22;19911;-90
2022/11/03 13:22:13;;;;;;;;;;;;;;;;;;6224370;22;19915;-91
2022/11/03 13:24:39;;;;;;;;;;;;;;;;;;6249818;22;19918;-91
2022/11/03 13:27:05;;;;;;;;;;;;;;;;;;6224347;22;19977;-91
2022/11/03 13:29:31;;;;;;;;;;;;;;;;;;6223840;22;19926;-90
2022/11/03 13:31:57;;;;;;;;;;;;;;;;;;6223452;22;20404;-90
2022/11/03 13:34:23;;;;;;;;;;;;;;;;;;6223465;22;19911;-91
2022/11/03 13:36:49;;;;;;;;;;;;;;;;;;6224294;22;19946;-90
2022/11/03 13:39:15;;;;;;;;;;;;;;;;;;6224030;22;19915;-91
2022/11/03 13:41:41;;;;;;;;;;;;;;;;;;6224434;22;19911;-90
2022/11/03 13:44:08;;;;;;;;;;;;;;;;;;6223801;22;19918;-90
2022/11/03 13:46:34;;;;;;;;;;;;;;;;;;6223874;22;19918;-90
2022/11/03 13:49:00;;;;;;;;;;;;;;;;;;6224813;22;19915;-91
2022/11/03 13:51:26;;;;;;;;;;;;;;;;;;6250531;22;19923;-90
2022/11/03 13:53:52;;;;;;;;;;;;;;;;;;6225925;22;19912;-90
2022/11/03 13:56:18;;;;;;;;;;;;;;;;;;6251059;22;19965;-90
2022/11/03 13:58:44;;;;;;;;;;;;;;;;;;6251053;22;19915;-89
2022/11/03 14:01:10;;;;;;;;;;;;;;;;;;6225583;22;19915;-89
2022/11/03 14:03:36;;;;;;;;;;;;;;;;;;6250894;22;20317;-89
2022/11/03 14:06:01;;;;;;;;;;;;;;;;;;6225756;22;20407;-89
2022/11/03 14:08:27;;;;;;;;;;;;;;;;;;6250373;22;20340;-89
2022/11/03 14:10:53;;;;;;;;;;;;;;;;;;6250134;22;19930;-91
2022/11/03 14:13:19;;;;;;;;;;;;;;;;;;6250392;22;19911;-89
2022/11/03 14:15:45;;;;;;;;;;;;;;;;;;6250211;22;20351;-90
2022/11/03 14:18:11;;;;;;;;;;;;;;;;;;6224995;22;19911;-90
2022/11/03 14:20:37;;;;;;;;;;;;;;;;;;6250608;22;20284;-90
2022/11/03 14:23:03;;;;;;;;;;;;;;;;;;6250998;22;19911;-90
2022/11/03 14:25:29;;;;;;;;;;;;;;;;;;6225253;22;19957;-89
2022/11/03 14:27:55;;;;;;;;;;;;;;;;;;6224759;22;20033;-89
2022/11/03 14:30:21;;;;;;;;;;;;;;;;;;6224164;22;20057;-89
2022/11/03 14:32:47;;;;;;;;;;;;;;;;;;6224516;22;20283;-90
2022/11/03 14:35:13;;;;;;;;;;;;;;;;;;6225376;22;19911;-90
2022/11/03 14:37:38;;;;;;;;;;;;;;;;;;6225462;22;20333;-89
2022/11/03 14:40:04;;;;;;;;;;;;;;;;;;6250218;22;19957;-90
2022/11/03 14:42:30;;;;;;;;;;;;;;;;;;6225431;22;19918;-89
2022/11/03 14:44:58;;;;;;;;;;;;;;;;;;6224855;22;19911;-89
2022/11/03 14:47:24;;;;;;;;;;;;;;;;;;6224846;22;20224;-88
2022/11/03 14:49:50;;;;;;;;;;;;;;;;;;6250456;22;19916;-90
2022/11/03 14:52:16;;;;;;;;;;;;;;;;;;6250481;22;19918;-91
2022/11/03 14:54:42;;;;;;;;;;;;;;;;;;6225192;22;20236;-90
2022/11/03 14:57:08;;;;;;;;;;;;;;;;;;6224940;22;20375;-90
2022/11/03 14:59:37;;;;;;;;;;;;;;;;;;6250796;22;20329;-90
2022/11/03 15:02:03;;;;;;;;;;;;;;;;;;6225091;22;19986;-91
2022/11/03 15:04:29;;;;;;;;;;;;;;;;;;6225052;22;20275;-88
2022/11/03 15:06:55;;;;;;;;;;;;;;;;;;6250015;22;19918;-90
2022/11/03 15:09:24;;;;;;;;;;;;;;;;;;6225476;22;19922;-90
2022/11/03 15:11:50;;;;;;;;;;;;;;;;;;6225012;22;20228;-90
2022/11/03 15:14:16;;;;;;;;;;;;;;;;;;6224604;22;19925;-90
2022/11/03 15:16:43;;;;;;;;;;;;;;;;;;6225228;22;19911;-90
2022/11/03 15:19:09;;;;;;;;;;;;;;;;;;6225542;22;19911;-89
2022/11/03 15:21:35;;;;;;;;;;;;;;;;;;6224818;22;19980;-90
2022/11/03 15:24:01;;;;;;;;;;;;;;;;;;6225005;22;19911;-90
2022/11/03 15:26:27;;;;;;;;;;;;;;;;;;6224753;22;19911;-90
2022/11/03 15:28:53;;;;;;;;;;;;;;;;;;6249781;22;19987;-90
2022/11/03 15:31:19;;;;;;;;;;;;;;;;;;6249612;22;19915;-89
2022/11/03 15:33:45;;;;;;;;;;;;;;;;;;6249572;22;19981;-90
2022/11/03 15:36:11;;;;;;;;;;;;;;;;;;6249331;22;19911;-90
2022/11/03 15:38:37;;;;;;;;;;;;;;;;;;6250407;22;19991;-90
2022/11/03 15:41:15;;;;;;;;;;;;;;;;;;6250437;22;19911;-90
2022/11/03 15:43:41;;;;;;;;;;;;;;;;;;6224180;22;20225;-89
2022/11/03 15:46:07;;;;;;;;;;;;;;;;;;6224366;22;19917;-89
2022/11/03 15:48:33;;;;;;;;;;;;;;;;;;6250523;22;19921;-89
2022/11/03 15:50:59;;;;;;;;;;;;;;;;;;6224073;22;19958;-89
2022/11/03 15:53:25;;;;;;;;;;;;;;;;;;6224231;22;19911;-90
2022/11/03 15:55:51;;;;;;;;;;;;;;;;;;6223481;22;20194;-89
2022/11/03 15:58:17;;;;;;;;;;;;;;;;;;6223813;22;19911;-92
2022/11/03 16:00:43;;;;;;;;;;;;;;;;;;6224470;22;19996;-90
2022/11/03 16:03:10;;;;;;;;;;;;;;;;;;6224170;22;19911;-89
2022/11/03 16:05:36;;;;;;;;;;;;;;;;;;6224762;22;19918;-91
2022/11/03 16:08:02;;;;;;;;;;;;;;;;;;6224620;22;19911;-90
2022/11/03 16:10:28;;;;;;;;;;;;;;;;;;6249648;22;19938;-90
2022/11/03 16:12:54;;;;;;;;;;;;;;;;;;6224007;22;19926;-90
2022/11/03 16:15:20;;;;;;;;;;;;;;;;;;6224038;22;20285;-90
2022/11/03 16:17:46;;;;;;;;;;;;;;;;;;6224102;22;19911;-90
2022/11/03 16:20:12;;;;;;;;;;;;;;;;;;6224194;22;19918;-90
2022/11/03 16:22:37;;;;;;;;;;;;;;;;;;6224283;22;19911;-90
2022/11/03 16:25:03;;;;;;;;;;;;;;;;;;6224448;22;19915;-89
2022/11/03 16:27:29;;;;;;;;;;;;;;;;;;6224391;22;19911;-90
2022/11/03 16:29:55;;;;;;;;;;;;;;;;;;6249026;22;19915;-88
2022/11/03 16:32:21;;;;;;;;;;;;;;;;;;6249558;22;20347;-90
2022/11/03 16:34:47;;;;;;;;;;;;;;;;;;6249395;22;19961;-89
2022/11/03 16:37:13;;;;;;;;;;;;;;;;;;6223894;22;19911;-88
2022/11/03 16:39:39;;;;;;;;;;;;;;;;;;6223914;22;19911;-88
2022/11/03 16:42:05;;;;;;;;;;;;;;;;;;6224009;22;19911;-90
2022/11/03 16:44:31;;;;;;;;;;;;;;;;;;6224053;22;19937;-88
2022/11/03 16:46:57;;;;;;;;;;;;;;;;;;6249257;22;20332;-91
2022/11/03 16:49:23;;;;;;;;;;;;;;;;;;6249587;22;19911;-90
2022/11/03 16:51:48;;;;;;;;;;;;;;;;;;6253034;22;19997;-91